Time;durP1;ratioP1;P1;durP2;ratioP2;P2;SDS_P1;SDS_P2;PMS_P1;PMS_P2;Temp;Humidity;BMP_temperature;BMP_pressure;BME280_temperature;BME280_humidity;BME280_pressure;Samples;Min_cycle;Max_cycle;Signal;HPM_P1;HPM_P2
2023/08/16 00:02:00;;;;;;;;;3.00;2.50;;;;;20.39;61.56;101276.13;5083328;27;45241;-82
2023/08/16 00:04:26;;;;;;;;;2.00;1.00;;;;;20.45;60.95;101287.25;5086530;27;54917;-81
2023/08/16 00:06:51;;;;;;;;;4.00;2.75;;;;;20.49;61.13;101295.91;5089325;27;45905;-83
2023/08/16 00:09:17;;;;;;;;;3.00;2.50;;;;;20.49;61.10;101283.44;5086394;27;45751;-83
2023/08/16 00:11:42;;;;;;;;;3.00;2.00;;;;;20.51;61.28;101277.19;5091283;27;46248;-82
2023/08/16 00:14:09;;;;;;;;;5.00;3.25;;;;;20.50;61.30;101276.31;5104560;27;45435;-82
2023/08/16 00:16:34;;;;;;;;;5.75;2.50;;;;;20.49;60.78;101277.28;5090904;27;47361;-83
2023/08/16 00:18:59;;;;;;;;;2.50;2.50;;;;;20.45;61.27;101273.97;5083781;27;65240;-83
2023/08/16 00:21:25;;;;;;;;;4.25;3.00;;;;;20.43;60.99;101273.19;5079210;28;47551;-82
2023/08/16 00:23:50;;;;;;;;;6.00;3.00;;;;;20.40;61.00;101275.19;5074342;27;45521;-83
2023/08/16 00:26:16;;;;;;;;;3.00;3.00;;;;;20.36;61.01;101274.50;5081049;27;56323;-84
2023/08/16 00:28:42;;;;;;;;;4.00;3.00;;;;;20.36;61.28;101276.28;5101807;27;45315;-84
2023/08/16 00:31:07;;;;;;;;;2.75;2.25;;;;;20.35;61.79;101279.91;5095231;27;47446;-83
2023/08/16 00:33:33;;;;;;;;;3.75;3.00;;;;;20.35;61.13;101277.25;5092534;27;45513;-84
2023/08/16 00:35:58;;;;;;;;;2.75;2.75;;;;;20.33;61.23;101277.34;5086261;27;55630;-85
2023/08/16 00:38:23;;;;;;;;;2.00;2.00;;;;;20.29;61.51;101279.31;5093324;27;68152;-85
2023/08/16 00:40:51;;;;;;;;;4.50;4.00;;;;;20.29;61.43;101274.00;5078021;28;72246;-86
2023/08/16 00:43:17;;;;;;;;;3.75;2.75;;;;;20.29;61.72;101278.44;5096700;27;55126;-85
2023/08/16 00:45:43;;;;;;;;;3.00;2.50;;;;;20.29;61.92;101274.00;5096830;27;45439;-84
2023/08/16 00:48:09;;;;;;;;;3.00;2.50;;;;;20.29;61.21;101274.00;5088213;27;45673;-84
2023/08/16 00:50:34;;;;;;;;;4.00;2.00;;;;;20.28;61.43;101272.28;5090572;27;45523;-84
2023/08/16 00:53:00;;;;;;;;;4.00;2.00;;;;;20.30;61.29;101258.91;5090136;27;45712;-85
2023/08/16 00:55:26;;;;;;;;;4.00;2.50;;;;;20.29;61.23;101260.72;5093634;27;66164;-85
2023/08/16 00:57:51;;;;;;;;;1.00;0.75;;;;;20.27;61.16;101251.13;5099704;27;45563;-84
2023/08/16 01:00:17;;;;;;;;;4.00;2.00;;;;;20.28;61.78;101256.34;5081349;27;47290;-85
2023/08/16 01:02:42;;;;;;;;;4.50;3.50;;;;;20.28;61.61;101256.34;5096397;27;45386;-85
2023/08/16 01:05:08;;;;;;;;;4.75;3.00;;;;;20.27;61.57;101259.97;5105919;27;59603;-83
2023/08/16 01:07:34;;;;;;;;;2.00;2.00;;;;;20.26;61.94;101252.91;5109162;27;45506;-82
2023/08/16 01:09:59;;;;;;;;;6.25;5.00;;;;;20.24;62.01;101252.16;5100389;27;47491;-81
2023/08/16 01:12:36;;;;;;;;;9.25;7.75;;;;;20.19;61.78;101248.06;5103988;27;62785;-83
2023/08/16 01:15:10;;;;;;;;;4.50;4.00;;;;;20.18;61.62;101244.53;5104892;27;44708;-82
2023/08/16 01:17:36;;;;;;;;;3.25;3.25;;;;;20.14;61.91;101242.19;5095980;27;45466;-82
2023/08/16 01:20:03;;;;;;;;;5.00;4.25;;;;;20.06;62.14;101224.88;5081384;27;46799;-82
2023/08/16 01:22:52;;;;;;;;;4.00;2.00;;;;;20.11;62.04;101229.91;5099682;27;45260;-84
2023/08/16 01:25:26;;;;;;;;;3.50;3.25;;;;;20.07;62.10;101225.72;5090480;27;45286;-85
2023/08/16 01:27:52;;;;;;;;;4.50;2.75;;;;;20.03;62.44;101225.06;5103266;27;45330;-87
2023/08/16 01:30:18;;;;;;;;;7.00;3.00;;;;;20.05;62.34;101235.59;5094847;27;46329;-85
2023/08/16 01:32:43;;;;;;;;;5.75;3.00;;;;;20.04;62.24;101237.41;5097066;27;45260;-85
2023/08/16 01:35:09;;;;;;;;;2.75;2.50;;;;;20.02;62.77;101243.75;5100038;27;46031;-83
2023/08/16 01:37:34;;;;;;;;;3.50;2.50;;;;;20.05;62.03;101246.22;5083473;27;45436;-84
2023/08/16 01:40:04;;;;;;;;;4.00;2.25;;;;;20.10;62.32;101255.63;5094953;27;51032;-85
2023/08/16 01:42:32;;;;;;;;;3.00;3.00;;;;;20.09;61.83;101261.03;5086348;27;45801;-83
2023/08/16 01:44:59;;;;;;;;;3.75;3.00;;;;;20.10;62.08;101265.41;5096737;27;45464;-83
2023/08/16 01:47:26;;;;;;;;;2.25;2.00;;;;;20.09;61.80;101259.22;5083967;27;45222;-85
2023/08/16 01:49:52;;;;;;;;;5.00;3.00;;;;;20.09;61.94;101266.34;5078145;27;45301;-84
2023/08/16 01:52:18;;;;;;;;;3.00;2.00;;;;;20.05;61.76;101272.78;5093848;27;45385;-85
2023/08/16 01:54:43;;;;;;;;;2.00;2.00;;;;;20.00;61.85;101270.41;5099967;27;46037;-85
2023/08/16 01:57:08;;;;;;;;;3.00;2.00;;;;;20.01;61.88;101277.44;5096297;27;64700;-85
2023/08/16 01:59:34;;;;;;;;;2.00;1.00;;;;;20.02;61.48;101272.97;5098887;27;61871;-86
2023/08/16 02:01:59;;;;;;;;;2.00;1.75;;;;;20.04;61.55;101268.41;5085742;27;46674;-85
2023/08/16 02:04:25;;;;;;;;;2.50;2.50;;;;;20.05;61.22;101273.66;5097363;27;45447;-85
2023/08/16 02:06:51;;;;;;;;;3.00;1.50;;;;;20.05;61.18;101265.66;5090570;27;70384;-86
2023/08/16 02:09:19;;;;;;;;;2.00;2.00;;;;;20.05;61.00;101270.13;5097812;27;48527;-86
2023/08/16 02:11:44;;;;;;;;;2.00;2.00;;;;;20.07;60.99;101260.28;5103961;27;45686;-85
2023/08/16 02:14:10;;;;;;;;;2.00;2.00;;;;;20.06;60.95;101272.72;5093107;27;46967;-85
2023/08/16 02:16:35;;;;;;;;;2.00;2.00;;;;;20.06;60.96;101272.72;5097266;27;45309;-85
2023/08/16 02:19:00;;;;;;;;;3.25;1.00;;;;;20.04;60.54;101263.09;5095386;27;69788;-85
2023/08/16 02:21:26;;;;;;;;;3.50;2.25;;;;;20.03;60.43;101264.91;5089331;27;45362;-85
2023/08/16 02:23:51;;;;;;;;;2.00;1.75;;;;;19.98;60.71;101255.50;5090147;27;45192;-85
2023/08/16 02:26:16;;;;;;;;;3.00;2.00;;;;;20.02;60.32;101265.00;5091121;27;45414;-82
2023/08/16 02:28:42;;;;;;;;;1.50;1.50;;;;;19.99;60.10;101254.53;5080345;27;46986;-84
2023/08/16 02:31:07;;;;;;;;;2.00;2.00;;;;;20.02;60.32;101260.53;5096927;27;65819;-84
2023/08/16 02:33:33;;;;;;;;;4.00;4.00;;;;;20.03;60.08;101262.25;5099786;27;45308;-83
2023/08/16 02:35:59;;;;;;;;;2.25;2.25;;;;;20.04;60.13;101257.78;5094765;27;45469;-83
2023/08/16 02:38:24;;;;;;;;;1.00;1.00;;;;;19.99;60.15;101260.72;5091648;27;45475;-84
2023/08/16 02:40:51;;;;;;;;;1.00;1.00;;;;;19.99;59.79;101266.03;5097657;27;45436;-84
2023/08/16 02:43:16;;;;;;;;;2.00;2.00;;;;;19.94;59.20;101264.56;5073847;27;45425;-83
2023/08/16 02:45:42;;;;;;;;;1.50;1.00;;;;;20.00;59.61;101273.06;5094373;27;45371;-83
2023/08/16 02:48:08;;;;;;;;;1.50;1.00;;;;;20.01;59.60;101274.78;5091957;27;45473;-84
2023/08/16 02:50:33;;;;;;;;;2.25;2.00;;;;;20.01;59.10;101264.16;5094721;27;55947;-84
2023/08/16 02:52:59;;;;;;;;;2.00;2.00;;;;;20.02;59.12;101255.22;5095622;27;45270;-83
2023/08/16 02:55:24;;;;;;;;;4.75;3.00;;;;;20.02;59.32;101260.53;5082803;27;45339;-83
2023/08/16 02:57:50;;;;;;;;;5.00;3.00;;;;;20.04;59.67;101263.97;5091310;27;59589;-83
2023/08/16 03:00:15;;;;;;;;;3.50;2.50;;;;;20.05;59.56;101256.84;5096348;27;45247;-84
2023/08/16 03:02:41;;;;;;;;;3.00;3.00;;;;;20.09;59.61;101253.91;5087445;27;66944;-84
2023/08/16 03:05:06;;;;;;;;;3.00;1.50;;;;;20.10;59.41;101249.47;5089226;27;70939;-84
2023/08/16 03:07:32;;;;;;;;;6.50;3.00;;;;;20.03;59.38;101237.50;5082852;27;47150;-83
2023/08/16 03:09:58;;;;;;;;;2.75;2.00;;;;;19.98;59.76;101229.78;5095349;27;45533;-85
2023/08/16 03:12:24;;;;;;;;;2.25;2.00;;;;;19.97;59.59;101232.53;5085054;27;45838;-84
2023/08/16 03:14:50;;;;;;;;;5.00;3.00;;;;;19.98;59.61;101234.25;5098025;27;45821;-82
2023/08/16 03:17:15;;;;;;;;;3.50;3.00;;;;;19.92;59.43;101227.50;5091077;27;60248;-83
2023/08/16 03:19:40;;;;;;;;;5.25;3.25;;;;;19.93;59.58;101245.13;5095344;27;45411;-83
2023/08/16 03:22:07;;;;;;;;;4.50;3.00;;;;;19.94;59.55;101245.97;5077965;27;45502;-83
2023/08/16 03:24:32;;;;;;;;;4.25;3.00;;;;;19.95;59.73;101243.22;5097783;27;45417;-82
2023/08/16 03:26:57;;;;;;;;;6.00;6.00;;;;;19.90;59.61;101235.56;5088317;27;47460;-83
2023/08/16 03:29:23;;;;;;;;;7.75;7.00;;;;;19.90;59.74;101235.56;5094897;27;45440;-82
2023/08/16 03:31:48;;;;;;;;;2.25;2.00;;;;;19.87;59.56;101235.72;5080682;27;50111;-83
2023/08/16 03:34:14;;;;;;;;;1.00;1.00;;;;;19.90;59.40;101240.00;5085226;27;48440;-84
2023/08/16 03:36:39;;;;;;;;;1.50;1.00;;;;;19.88;59.34;101240.09;5089461;27;45402;-84
2023/08/16 03:39:05;;;;;;;;;1.00;1.00;;;;;19.87;59.26;101246.34;5094949;27;45373;-83
2023/08/16 03:41:34;;;;;;;;;2.00;2.00;;;;;19.85;59.17;101250.06;5083376;27;45512;-83
2023/08/16 03:44:00;;;;;;;;;2.00;1.00;;;;;19.87;58.89;101254.31;5080646;27;45470;-83
2023/08/16 03:46:25;;;;;;;;;1.75;1.00;;;;;19.86;59.24;101255.25;5080025;27;47766;-83
2023/08/16 03:48:50;;;;;;;;;1.00;1.00;;;;;19.87;59.15;101253.47;5088460;27;63476;-84
2023/08/16 03:51:16;;;;;;;;;1.00;1.00;;;;;19.86;58.79;101241.97;5093427;27;64566;-81
2023/08/16 03:53:41;;;;;;;;;1.00;1.00;;;;;19.78;58.91;101240.69;5078318;27;45516;-84
2023/08/16 03:56:07;;;;;;;;;1.25;1.00;;;;;19.83;58.98;101247.47;5089327;27;48595;-84
2023/08/16 03:58:32;;;;;;;;;1.75;1.00;;;;;19.82;58.76;101248.41;5091853;27;45243;-85
2023/08/16 04:00:57;;;;;;;;;2.50;2.00;;;;;19.80;58.83;101245.00;5099482;27;45455;-84
2023/08/16 04:03:23;;;;;;;;;2.00;1.00;;;;;19.78;59.22;101248.66;5086352;27;45485;-83
2023/08/16 04:05:48;;;;;;;;;1.50;1.00;;;;;19.73;59.10;101236.53;5095910;27;72265;-84
2023/08/16 04:08:14;;;;;;;;;1.50;1.00;;;;;19.69;58.97;101231.47;5094038;27;45390;-85
2023/08/16 04:10:39;;;;;;;;;3.00;1.00;;;;;19.69;59.01;101240.28;5084657;27;45406;-85
2023/08/16 04:13:05;;;;;;;;;1.00;1.00;;;;;19.68;58.96;101238.53;5072561;27;45496;-84
2023/08/16 04:15:30;;;;;;;;;2.75;1.00;;;;;19.65;58.78;101240.53;5089819;27;50191;-83
2023/08/16 04:17:56;;;;;;;;;4.00;2.00;;;;;19.65;59.04;101244.03;5084517;27;45137;-83
2023/08/16 04:20:22;;;;;;;;;2.00;2.00;;;;;19.64;59.31;101242.31;5097530;27;45527;-84
2023/08/16 04:22:48;;;;;;;;;2.00;2.00;;;;;19.64;59.19;101233.53;5089906;27;45280;-83
2023/08/16 04:25:13;;;;;;;;;1.00;1.00;;;;;19.64;59.33;101231.72;5088919;27;46384;-85
2023/08/16 04:27:38;;;;;;;;;3.00;1.50;;;;;19.60;59.71;101226.66;5098643;27;45264;-86
2023/08/16 04:30:06;;;;;;;;;4.00;2.00;;;;;19.57;59.36;101222.38;5085098;27;64565;-85
2023/08/16 04:32:31;;;;;;;;;1.75;1.75;;;;;19.57;59.30;101230.34;5070711;27;45523;-85
2023/08/16 04:34:56;;;;;;;;;4.25;3.50;;;;;19.56;59.37;101231.28;5088452;27;59651;-84
2023/08/16 04:37:22;;;;;;;;;1.50;1.00;;;;;19.53;59.62;101229.66;5072992;27;45521;-84
2023/08/16 04:39:48;;;;;;;;;2.50;1.00;;;;;19.50;59.59;101232.50;5078160;27;45554;-85
2023/08/16 04:42:14;;;;;;;;;2.00;2.00;;;;;19.51;59.56;101228.03;5086714;27;45503;-83
2023/08/16 04:44:39;;;;;;;;;4.25;1.75;;;;;19.48;59.57;101237.03;5078823;27;45634;-82
2023/08/16 04:47:05;;;;;;;;;2.00;2.00;;;;;19.46;59.61;101230.97;5082157;27;58193;-83
2023/08/16 04:49:32;;;;;;;;;2.00;2.00;;;;;19.45;59.76;101231.03;5102937;27;45540;-83
2023/08/16 04:51:57;;;;;;;;;1.00;1.00;;;;;19.44;59.96;101237.28;5096041;27;45228;-85
2023/08/16 04:54:23;;;;;;;;;3.00;2.00;;;;;19.40;59.76;101228.63;5093156;27;45243;-86
2023/08/16 04:56:49;;;;;;;;;1.00;1.00;;;;;19.41;59.77;101235.66;5094983;27;45281;-85
2023/08/16 04:59:15;;;;;;;;;2.00;1.50;;;;;19.40;60.01;101231.28;5090359;27;45468;-84
2023/08/16 05:01:41;;;;;;;;;4.50;3.00;;;;;19.38;60.11;101235.84;5091362;27;45380;-83
2023/08/16 05:04:08;;;;;;;;;3.75;2.00;;;;;19.39;60.01;101239.34;5069298;27;46796;-83
2023/08/16 05:06:34;;;;;;;;;1.50;1.50;;;;;19.39;59.99;101239.34;5085309;27;45696;-82
2023/08/16 05:08:59;;;;;;;;;2.25;1.50;;;;;19.33;60.43;101238.72;5075416;27;50826;-82
2023/08/16 05:11:24;;;;;;;;;2.25;2.00;;;;;19.39;59.65;101242.00;5099277;27;66031;-82
2023/08/16 05:13:50;;;;;;;;;3.75;2.00;;;;;19.36;60.35;101251.00;5091891;27;73491;-82
2023/08/16 05:16:15;;;;;;;;;2.00;2.00;;;;;19.38;60.21;101253.56;5085559;27;66685;-83
2023/08/16 05:18:40;;;;;;;;;4.50;2.25;;;;;19.39;60.50;101257.91;5089500;27;45473;-83
2023/08/16 05:21:06;;;;;;;;;2.25;2.00;;;;;19.40;60.13;101252.53;5099741;27;45445;-83
2023/08/16 05:23:31;;;;;;;;;4.25;3.00;;;;;19.38;60.01;101254.41;5088697;27;46787;-81
2023/08/16 05:25:57;;;;;;;;;2.00;1.00;;;;;19.38;60.08;101261.53;5092956;27;45185;-82
2023/08/16 05:28:22;;;;;;;;;3.00;2.00;;;;;19.33;60.00;101252.00;5093961;27;45749;-82
2023/08/16 05:30:47;;;;;;;;;2.75;2.75;;;;;19.34;60.13;101256.38;5087176;27;45478;-82
2023/08/16 05:33:13;;;;;;;;;3.75;3.00;;;;;19.32;59.93;101245.00;5092015;27;74518;-82
2023/08/16 05:35:38;;;;;;;;;6.00;3.00;;;;;19.35;60.27;101257.22;5088516;27;45275;-81
2023/08/16 05:38:05;;;;;;;;;16.00;12.50;;;;;19.36;59.83;101251.00;5079686;27;45453;-78
2023/08/16 05:40:30;;;;;;;;;14.75;10.75;;;;;19.39;59.91;101258.78;5074775;27;45820;-85
2023/08/16 05:42:56;;;;;;;;;7.75;6.00;;;;;19.44;59.93;101267.34;5090255;27;45706;-77
2023/08/16 05:45:22;;;;;;;;;2.25;2.25;;;;;19.46;59.53;101260.16;5087493;27;56098;-79
2023/08/16 05:47:48;;;;;;;;;2.00;2.00;;;;;19.46;60.02;101260.16;5094126;27;45510;-78
2023/08/16 05:50:13;;;;;;;;;3.00;3.00;;;;;19.49;59.54;101264.44;5079508;27;46966;-83
2023/08/16 05:52:38;;;;;;;;;5.50;2.25;;;;;19.50;59.98;101247.56;5095199;27;45302;-81
2023/08/16 05:55:04;;;;;;;;;6.00;2.00;;;;;19.53;59.85;101260.69;5101119;27;45334;-79
2023/08/16 05:57:29;;;;;;;;;1.00;1.00;;;;;19.54;59.54;101255.25;5098907;27;45257;-82
2023/08/16 05:59:55;;;;;;;;;4.00;2.00;;;;;19.55;60.02;101250.81;5090427;27;60287;-82
2023/08/16 06:02:23;;;;;;;;;2.00;2.00;;;;;19.64;59.63;101247.63;5091113;27;66826;-78
2023/08/16 06:04:49;;;;;;;;;4.75;3.00;;;;;19.68;59.78;101253.63;5103275;27;45706;-75
2023/08/16 06:07:14;;;;;;;;;2.25;1.75;;;;;19.69;59.74;101250.03;5084743;27;45257;-84
2023/08/16 06:09:39;;;;;;;;;4.00;2.00;;;;;19.68;59.56;101248.31;5093115;27;45249;-81
2023/08/16 06:12:05;;;;;;;;;2.00;2.00;;;;;19.71;59.37;101261.44;5090220;27;45398;-83
2023/08/16 06:14:36;;;;;;;;;2.75;2.75;;;;;19.72;59.63;101271.09;5101700;27;45674;-82
2023/08/16 06:17:01;;;;;;;;;4.00;2.00;;;;;19.72;59.75;101257.81;5086258;27;64461;-77
2023/08/16 06:19:27;;;;;;;;;2.00;2.00;;;;;19.73;59.57;101268.38;5067751;28;66033;-79
2023/08/16 06:21:52;;;;;;;;;3.50;2.00;;;;;19.77;59.62;101260.25;5091549;27;73324;-78
2023/08/16 06:24:17;;;;;;;;;11.00;8.75;;;;;19.83;59.64;101267.84;5090536;27;45404;-76
2023/08/16 06:26:43;;;;;;;;;4.50;3.00;;;;;19.84;59.35;101264.25;5098196;27;45172;-81
2023/08/16 06:29:08;;;;;;;;;3.00;3.00;;;;;19.84;59.22;101270.44;5107097;27;63632;-80
2023/08/16 06:31:33;;;;;;;;;6.50;2.50;;;;;19.86;59.15;101279.16;5102111;27;62533;-82
2023/08/16 06:34:00;;;;;;;;;3.50;3.00;;;;;19.87;59.83;101278.22;5098712;27;67884;-81
2023/08/16 06:36:26;;;;;;;;;2.75;1.75;;;;;19.90;59.53;101285.16;5089647;27;45436;-82
2023/08/16 06:38:52;;;;;;;;;3.25;3.00;;;;;19.94;59.51;101280.50;5100274;27;46075;-82
2023/08/16 06:41:17;;;;;;;;;5.00;3.75;;;;;19.96;59.72;101286.63;5101184;27;45302;-82
2023/08/16 06:43:43;;;;;;;;;4.25;2.75;;;;;20.02;59.32;101280.94;5086323;27;53035;-79
2023/08/16 06:46:09;;;;;;;;;2.50;2.00;;;;;20.04;59.33;101281.69;5087968;27;52677;-79
2023/08/16 06:48:34;;;;;;;;;2.00;2.00;;;;;20.14;59.32;101290.84;5079205;27;45636;-80
2023/08/16 06:51:00;;;;;;;;;4.00;4.00;;;;;20.17;59.40;101279.16;5084321;27;62084;-79
2023/08/16 06:53:25;;;;;;;;;3.75;2.75;;;;;20.24;59.52;101278.75;5087212;27;46742;-80
2023/08/16 06:55:54;;;;;;;;;5.25;3.00;;;;;20.28;59.21;101268.78;5099465;27;45474;-74
2023/08/16 06:58:19;;;;;;;;;5.50;5.00;;;;;20.32;59.13;101270.31;5092591;27;45370;-75
2023/08/16 07:00:46;;;;;;;;;7.00;5.25;;;;;20.37;59.41;101268.22;5097004;27;64035;-75
2023/08/16 07:03:12;;;;;;;;;5.25;3.50;;;;;20.42;59.18;101273.28;5084827;27;45782;-73
2023/08/16 07:05:37;;;;;;;;;6.50;4.50;;;;;20.46;59.15;101280.13;5095065;27;45554;-72
2023/08/16 07:08:03;;;;;;;;;4.50;4.00;;;;;20.51;59.41;101285.19;5079220;27;47765;-71
2023/08/16 07:10:29;;;;;;;;;7.25;5.00;;;;;20.56;59.00;101288.41;5080129;27;45359;-74
2023/08/16 07:12:54;;;;;;;;;6.00;3.00;;;;;20.63;59.33;101292.44;5090095;27;45476;-73
2023/08/16 07:15:19;;;;;;;;;4.75;4.75;;;;;20.69;59.24;101286.75;5068978;27;45548;-75
2023/08/16 07:17:45;;;;;;;;;4.75;4.25;;;;;20.75;59.34;101289.03;5081362;27;45622;-77
2023/08/16 07:20:10;;;;;;;;;6.50;4.00;;;;;20.78;58.92;101283.50;5089821;27;45189;-74
2023/08/16 07:22:38;;;;;;;;;4.25;4.00;;;;;20.83;58.97;101277.91;5090553;27;69319;-74
2023/08/16 07:25:06;;;;;;;;;4.25;4.25;;;;;20.91;59.05;101285.41;5086464;27;45238;-73
2023/08/16 07:27:32;;;;;;;;;7.00;5.25;;;;;20.92;58.97;101284.47;5093681;27;45595;-75
2023/08/16 07:29:57;;;;;;;;;5.50;4.00;;;;;20.94;58.76;101280.75;5091105;27;47359;-74
2023/08/16 07:32:23;;;;;;;;;8.25;4.00;;;;;20.92;58.87;101279.16;5086414;27;48168;-76
2023/08/16 07:34:48;;;;;;;;;7.00;5.25;;;;;20.92;59.03;101271.19;5094704;27;45520;-75
2023/08/16 07:37:14;;;;;;;;;6.25;5.25;;;;;20.96;59.01;101283.34;5090462;27;73375;-74
2023/08/16 07:39:40;;;;;;;;;19.00;10.75;;;;;20.94;58.99;101286.09;5083307;27;45560;-70
2023/08/16 07:42:06;;;;;;;;;11.25;8.25;;;;;20.92;58.96;101282.66;5086921;27;45421;-75
2023/08/16 07:44:34;;;;;;;;;14.00;7.75;;;;;20.97;59.32;101282.41;5097407;27;45434;-74
2023/08/16 07:47:03;;;;;;;;;4.00;4.00;;;;;20.96;59.43;101286.00;5089824;27;45432;-80
2023/08/16 07:49:29;;;;;;;;;7.00;6.00;;;;;21.01;59.34;101278.59;5087472;27;46031;-76
2023/08/16 07:51:57;;;;;;;;;5.50;5.00;;;;;21.02;59.17;101270.50;5087449;27;45426;-73
2023/08/16 07:54:23;;;;;;;;;7.00;5.75;;;;;21.05;59.32;101272.09;5091805;27;45812;-76
2023/08/16 07:56:53;;;;;;;;;23.50;19.25;;;;;21.11;59.26;101266.41;5079827;27;45331;-73
2023/08/16 07:59:19;;;;;;;;;9.00;7.75;;;;;21.14;58.99;101268.91;5085482;27;45412;-75
2023/08/16 08:01:45;;;;;;;;;11.75;10.00;;;;;21.18;59.17;101269.56;5091471;27;45539;-74
2023/08/16 08:04:11;;;;;;;;;9.75;6.50;;;;;21.22;59.17;101276.38;5078503;28;45696;-75
2023/08/16 08:06:36;;;;;;;;;13.50;9.50;;;;;21.28;59.10;101273.31;5093692;27;45473;-73
2023/08/16 08:09:02;;;;;;;;;10.75;8.50;;;;;21.33;58.90;101270.38;5087810;27;45269;-73
2023/08/16 08:11:27;;;;;;;;;6.50;4.25;;;;;21.38;59.30;101269.13;5079621;27;45685;-74
2023/08/16 08:13:53;;;;;;;;;6.50;5.00;;;;;21.44;58.78;101273.19;5088312;27;60932;-76
2023/08/16 08:16:18;;;;;;;;;2.00;2.00;;;;;21.49;58.81;101273.78;5091481;27;45671;-72
2023/08/16 08:18:44;;;;;;;;;5.75;5.75;;;;;21.52;58.61;101278.06;5084164;27;66968;-74
2023/08/16 08:21:10;;;;;;;;;5.50;3.50;;;;;21.52;58.46;101278.94;5087311;27;45356;-75
2023/08/16 08:23:35;;;;;;;;;7.25;4.75;;;;;21.56;58.74;101280.44;5084121;27;45406;-80
2023/08/16 08:26:01;;;;;;;;;12.00;9.00;;;;;21.59;58.57;101293.56;5102816;27;45516;-75
2023/08/16 08:28:26;;;;;;;;;6.00;3.50;;;;;21.60;59.09;101287.28;5089271;27;47259;-80
2023/08/16 08:30:53;;;;;;;;;6.50;3.50;;;;;21.68;59.07;101284.13;5084018;27;45459;-79
2023/08/16 08:33:19;;;;;;;;;3.00;3.00;;;;;21.75;58.89;101284.56;5096271;27;45363;-80
2023/08/16 08:35:44;;;;;;;;;4.00;3.25;;;;;21.77;58.55;101288.00;5097424;27;45836;-77
2023/08/16 08:38:10;;;;;;;;;3.75;2.50;;;;;21.88;58.70;101295.28;5083305;27;58508;-76
2023/08/16 08:40:35;;;;;;;;;5.75;4.50;;;;;21.98;58.64;101296.38;5082873;27;65824;-74
2023/08/16 08:43:03;;;;;;;;;6.25;3.75;;;;;22.02;58.35;101292.56;5094013;27;45297;-81
2023/08/16 08:45:30;;;;;;;;;8.00;6.00;;;;;22.05;58.46;101288.84;5093666;27;45467;-76
2023/08/16 08:47:57;;;;;;;;;9.50;4.50;;;;;22.09;58.07;101299.19;5089357;27;45523;-79
2023/08/16 08:50:22;;;;;;;;;4.25;4.00;;;;;22.11;58.37;101299.09;5087194;27;45325;-77
2023/08/16 08:52:51;;;;;;;;;8.75;5.75;;;;;22.20;58.10;101309.13;5072112;27;45357;-76
2023/08/16 08:55:18;;;;;;;;;4.00;4.00;;;;;22.26;58.38;101299.88;5105344;27;45349;-76
2023/08/16 08:57:50;;;;;;;;;6.50;6.00;;;;;22.34;58.37;101303.75;5098169;27;45918;-75
2023/08/16 09:00:19;;;;;;;;;7.00;4.00;;;;;22.49;57.97;101301.03;5091589;27;45378;-80
2023/08/16 09:02:45;;;;;;;;;1.50;0.00;;;;;22.58;57.86;101304.88;5101987;27;45271;-75
2023/08/16 09:05:12;;;;;;;;;7.50;7.00;;;;;22.67;57.93;101302.41;5085776;27;46361;-76
2023/08/16 09:07:39;;;;;;;;;5.75;4.50;;;;;22.79;57.66;101302.50;5083125;27;46331;-76
2023/08/16 09:10:06;;;;;;;;;5.00;4.25;;;;;22.84;57.33;101295.91;5084216;27;45363;-75
2023/08/16 09:12:32;;;;;;;;;11.75;10.00;;;;;22.94;57.45;101288.09;5094551;27;45549;-75
2023/08/16 09:14:58;;;;;;;;;7.25;6.00;;;;;;;;5088820;27;45451;-75
2023/08/16 09:17:23;;;;;;;;;8.00;4.75;;;;;23.16;56.69;101290.16;5098816;27;47941;-78
2023/08/16 09:19:48;;;;;;;;;5.50;4.25;;;;;23.24;56.57;101285.09;5080984;27;45256;-75
2023/08/16 09:22:16;;;;;;;;;5.75;5.00;;;;;23.34;56.61;101295.09;5097108;27;45659;-75
2023/08/16 09:24:43;;;;;;;;;10.50;5.25;;;;;23.42;56.23;101298.09;5094324;27;45313;-74
2023/08/16 09:27:10;;;;;;;;;4.00;3.25;;;;;23.55;55.94;101293.56;5093788;27;48155;-73
2023/08/16 09:29:39;;;;;;;;;8.25;8.00;;;;;23.69;55.67;101288.06;5090130;27;45371;-74
2023/08/16 09:32:08;;;;;;;;;11.00;8.25;;;;;23.81;55.58;101293.50;5083640;27;45469;-75
2023/08/16 09:34:34;;;;;;;;;11.75;9.00;;;;;23.92;55.18;101285.56;5082207;27;45654;-73
2023/08/16 09:37:02;;;;;;;;;8.50;5.50;;;;;24.06;54.65;101288.03;5082570;27;46964;-74
2023/08/16 09:39:28;;;;;;;;;6.25;3.75;;;;;24.17;54.53;101281.88;5089202;27;45624;-74
2023/08/16 09:41:54;;;;;;;;;9.25;6.00;;;;;24.30;54.22;101273.75;5079900;27;45327;-75
2023/08/16 09:44:20;;;;;;;;;20.25;16.00;;;;;24.40;54.04;101280.13;5087012;27;45773;-74
2023/08/16 09:46:46;;;;;;;;;3.75;3.50;;;;;24.50;53.60;101277.56;5086084;27;45373;-76
2023/08/16 09:49:12;;;;;;;;;7.00;3.75;;;;;24.58;53.49;101269.00;5086742;27;45982;-75
2023/08/16 09:51:39;;;;;;;;;7.00;5.00;;;;;24.68;53.08;101266.44;5087093;27;45362;-73
2023/08/16 09:54:11;;;;;;;;;8.00;4.25;;;;;24.78;52.97;101270.94;5089917;27;45363;-73
2023/08/16 09:56:37;;;;;;;;;4.00;3.25;;;;;24.79;52.69;101256.59;5097537;27;47875;-73
2023/08/16 09:59:03;;;;;;;;;5.50;4.25;;;;;24.89;52.77;101259.38;5082015;27;45609;-72
2023/08/16 10:01:30;;;;;;;;;6.25;2.50;;;;;24.99;52.67;101243.47;5100080;27;45345;-73
2023/08/16 10:03:56;;;;;;;;;4.75;4.00;;;;;25.10;52.05;101245.28;5076767;28;46270;-71
2023/08/16 10:06:23;;;;;;;;;4.50;2.50;;;;;25.15;52.26;101237.72;5096161;27;46231;-78
2023/08/16 10:08:49;;;;;;;;;6.00;4.00;;;;;25.19;52.12;101231.97;5103692;27;45650;-75
2023/08/16 10:11:15;;;;;;;;;4.75;3.25;;;;;25.30;52.00;101231.16;5086665;27;45445;-73
2023/08/16 10:13:42;;;;;;;;;5.00;4.00;;;;;25.39;51.66;101226.84;5093342;27;72312;-73
2023/08/16 10:16:11;;;;;;;;;4.75;2.75;;;;;25.42;51.16;101215.88;5083655;27;48206;-74
2023/08/16 10:18:39;;;;;;;;;3.25;3.25;;;;;25.48;50.89;101214.53;5092792;27;45639;-74
2023/08/16 10:21:06;;;;;;;;;6.00;3.00;;;;;25.52;51.09;101202.59;5093699;27;45318;-74
2023/08/16 10:23:32;;;;;;;;;3.25;1.00;;;;;25.60;50.51;101209.97;5095376;27;60316;-75
2023/08/16 10:26:01;;;;;;;;;4.50;3.00;;;;;25.61;50.53;101217.06;5099299;27;47063;-73
2023/08/16 10:28:27;;;;;;;;;2.75;2.75;;;;;25.64;50.30;101216.78;5091629;27;45606;-73
2023/08/16 10:30:56;;;;;;;;;4.50;2.00;;;;;25.69;49.97;101220.81;5114205;27;45488;-72
2023/08/16 10:33:28;;;;;;;;;4.00;4.00;;;;;25.75;50.14;101220.28;5087289;27;45649;-72
2023/08/16 10:35:54;;;;;;;;;5.75;3.50;;;;;25.78;49.62;101219.16;5084062;27;47164;-72
2023/08/16 10:38:19;;;;;;;;;4.25;2.75;;;;;25.84;49.75;101215.97;5099368;27;59444;-73
2023/08/16 10:40:56;;;;;;;;;3.00;2.00;;;;;25.89;49.01;101221.81;5085071;27;45629;-75
2023/08/16 10:43:31;;;;;;;;;4.25;2.00;;;;;25.93;49.00;101215.22;5094330;27;46215;-83
2023/08/16 10:45:56;;;;;;;;;4.50;2.25;;;;;25.95;48.83;101215.94;5090185;27;46561;-74
2023/08/16 10:48:21;;;;;;;;;2.25;1.00;;;;;25.98;48.64;101211.31;5078828;27;45444;-73
2023/08/16 10:50:59;;;;;;;;;2.00;2.00;;;;;25.99;48.47;101213.84;5087331;27;45366;-72
2023/08/16 10:53:27;;;;;;;;;4.25;4.25;;;;;25.99;48.23;101210.31;5095240;27;45319;-72
2023/08/16 10:55:56;;;;;;;;;2.00;2.00;;;;;25.99;48.59;101213.00;5099819;27;45698;-74
2023/08/16 10:58:23;;;;;;;;;1.00;1.00;;;;;26.07;48.52;101214.06;5088040;27;45409;-72
2023/08/16 11:01:04;;;;;;;;;2.00;1.25;;;;;26.17;48.57;101215.94;5063435;28;45354;-72
2023/08/16 11:03:37;;;;;;;;;3.75;2.50;;;;;26.24;48.11;101215.31;5093947;27;45395;-72
2023/08/16 11:06:12;;;;;;;;;3.00;3.00;;;;;26.36;48.71;101208.00;5094595;27;46304;-73
2023/08/16 11:08:45;;;;;;;;;1.00;0.50;;;;;26.43;47.80;101203.81;5089783;27;45368;-70
2023/08/16 11:11:14;;;;;;;;;2.00;2.00;;;;;26.45;46.88;101193.78;5086565;27;45366;-69
2023/08/16 11:13:42;;;;;;;;;2.00;2.00;;;;;26.59;46.84;101203.31;5089752;27;45421;-69
2023/08/16 11:16:10;;;;;;;;;0.50;0.50;;;;;26.71;46.49;101210.34;5072000;27;46258;-70
2023/08/16 11:18:37;;;;;;;;;1.00;0.00;;;;;26.81;46.17;101198.81;5085649;27;45320;-69
2023/08/16 11:21:03;;;;;;;;;1.00;0.00;;;;;26.88;45.67;101200.81;5091044;27;45540;-69